Time;durP1;ratioP1;P1;durP2;ratioP2;P2;SDS_P1;SDS_P2;PMS_P1;PMS_P2;Temp;Humidity;BMP_temperature;BMP_pressure;BME280_temperature;BME280_humidity;BME280_pressure;Samples;Min_cycle;Max_cycle;Signal;HPM_P1;HPM_P2
2023/06/07 00:00:07;;;;;;;;;;;;;;;22.55;65.00;98804.00;2080435;28;19928;-55
2023/06/07 00:01:08;;;;;;;;;;;;;;;22.55;64.92;98801.28;2081490;28;20007;-50
2023/06/07 00:02:11;;;;;;;;;;;;;;;22.55;65.01;98793.19;2077291;28;20006;-54
2023/06/07 00:03:13;;;;;;;;;;;;;;;22.54;65.01;98797.78;2080790;28;19966;-50
2023/06/07 00:04:14;;;;;;;;;;;;;;;22.53;65.20;98796.09;2078302;28;19924;-54
2023/06/07 00:05:15;;;;;;;;;;;;;;;22.53;65.04;98791.50;2077953;28;20461;-54
2023/06/07 00:06:19;;;;;;;;;;;;;;;22.55;64.78;98798.59;2080944;28;19928;-51
2023/06/07 00:07:19;;;;;;;;;;;;;;;22.55;64.91;98794.00;2076661;28;20646;-53
2023/06/07 00:08:20;;;;;;;;;;;;;;;22.55;64.91;98788.59;2078939;28;25273;-50
2023/06/07 00:09:21;;;;;;;;;;;;;;;22.55;64.89;98787.78;2079326;28;20043;-50
2023/06/07 00:10:23;;;;;;;;;;;;;;;22.55;64.97;98787.78;2082359;28;19920;-52
2023/06/07 00:11:24;;;;;;;;;;;;;;;22.55;64.94;98777.78;2079989;28;19924;-53
2023/06/07 00:12:25;;;;;;;;;;;;;;;22.55;64.93;98782.38;2080928;28;19924;-58
2023/06/07 00:13:27;;;;;;;;;;;;;;;22.55;64.95;98780.50;2080844;28;19924;-54
2023/06/07 00:14:28;;;;;;;;;;;;;;;22.56;64.87;98786.72;2078986;28;19931;-54
2023/06/07 00:15:29;;;;;;;;;;;;;;;22.55;64.89;98788.59;2079256;28;21029;-54
2023/06/07 00:16:32;;;;;;;;;;;;;;;22.55;64.90;98785.06;2079795;28;19931;-54
2023/06/07 00:17:33;;;;;;;;;;;;;;;22.56;65.05;98781.31;2080366;28;20461;-55
2023/06/07 00:18:34;;;;;;;;;;;;;;;22.55;64.83;98782.38;2080513;28;19935;-52
2023/06/07 00:19:35;;;;;;;;;;;;;;;22.55;64.95;98779.66;2082871;28;19936;-54
2023/06/07 00:20:36;;;;;;;;;;;;;;;22.53;64.77;98771.78;2078354;28;19929;-55
2023/06/07 00:21:38;;;;;;;;;;;;;;;22.52;64.91;98775.53;2078469;28;20019;-54
2023/06/07 00:22:39;;;;;;;;;;;;;;;22.53;64.94;98772.59;2078356;28;19928;-53
2023/06/07 00:23:40;;;;;;;;;;;;;;;22.53;64.82;98775.28;2071730;28;20037;-53
2023/06/07 00:24:41;;;;;;;;;;;;;;;22.53;64.98;98772.59;2075696;28;20321;-54
2023/06/07 00:25:42;;;;;;;;;;;;;;;22.53;64.88;98779.88;2080810;28;19935;-53
2023/06/07 00:26:43;;;;;;;;;;;;;;;22.52;65.09;98773.66;2080938;28;19950;-55
2023/06/07 00:27:44;;;;;;;;;;;;;;;22.53;65.08;98777.19;2081103;28;19920;-54
2023/06/07 00:28:47;;;;;;;;;;;;;;;22.53;64.94;98777.19;2078788;28;20218;-55
2023/06/07 00:29:47;;;;;;;;;;;;;;;22.53;64.81;98777.19;2079143;28;19936;-53
2023/06/07 00:30:49;;;;;;;;;;;;;;;22.53;64.90;98779.88;2079034;28;19924;-53
2023/06/07 00:31:50;;;;;;;;;;;;;;;22.53;64.94;98775.28;2080091;28;19924;-54
2023/06/07 00:32:52;;;;;;;;;;;;;;;22.52;64.96;98781.75;2078248;28;20366;-54
2023/06/07 00:33:52;;;;;;;;;;;;;;;22.53;65.08;98774.47;2080425;28;19924;-49
2023/06/07 00:34:54;;;;;;;;;;;;;;;22.53;64.97;98777.19;2078921;28;19929;-51
2023/06/07 00:35:54;;;;;;;;;;;;;;;22.53;64.97;98772.59;2079099;28;20376;-54
2023/06/07 00:36:56;;;;;;;;;;;;;;;22.53;64.98;98772.59;2080750;28;19975;-54
2023/06/07 00:37:56;;;;;;;;;;;;;;;22.52;64.81;98770.94;2079209;28;20001;-55
2023/06/07 00:38:58;;;;;;;;;;;;;;;22.53;64.94;98767.19;2079115;28;20727;-53
2023/06/07 00:39:58;;;;;;;;;;;;;;;22.53;64.85;98774.47;2080250;28;19993;-52
2023/06/07 00:41:00;;;;;;;;;;;;;;;22.53;64.99;98769.88;2082796;28;19920;-49
2023/06/07 00:42:00;;;;;;;;;;;;;;;22.53;64.91;98772.59;2086225;28;19943;-52
2023/06/07 00:43:01;;;;;;;;;;;;;;;22.52;64.98;98772.84;2084930;28;19921;-53
2023/06/07 00:44:04;;;;;;;;;;;;;;;22.52;64.89;98773.66;2087302;28;20647;-54
2023/06/07 00:45:06;;;;;;;;;;;;;;;22.53;65.00;98779.88;2080922;28;19929;-52
2023/06/07 00:46:06;;;;;;;;;;;;;;;22.51;64.88;98772.00;2079542;28;20064;-54
2023/06/07 00:47:08;;;;;;;;;;;;;;;22.51;65.06;98777.41;2078320;28;21358;-53
2023/06/07 00:48:08;;;;;;;;;;;;;;;22.52;65.07;98778.25;2084792;28;19924;-53
2023/06/07 00:49:10;;;;;;;;;;;;;;;22.51;65.17;98777.41;2087317;28;19921;-50
2023/06/07 00:50:11;;;;;;;;;;;;;;;22.50;65.26;98781.16;2086346;28;19936;-54
2023/06/07 00:51:12;;;;;;;;;;;;;;;22.51;65.06;98780.13;2088919;28;20031;-51
2023/06/07 00:52:13;;;;;;;;;;;;;;;22.51;65.13;98774.72;2086072;28;20019;-53
2023/06/07 00:53:15;;;;;;;;;;;;;;;22.52;65.08;98779.06;2088514;28;19923;-49
2023/06/07 00:54:17;;;;;;;;;;;;;;;22.51;65.16;98772.00;2087306;28;19921;-54
2023/06/07 00:55:18;;;;;;;;;;;;;;;22.51;65.20;98777.41;2086369;28;19998;-50
2023/06/07 00:56:19;;;;;;;;;;;;;;;22.51;64.85;98774.72;2088076;28;19974;-54
2023/06/07 00:57:20;;;;;;;;;;;;;;;22.50;65.21;98778.44;2089456;28;20345;-52
2023/06/07 00:58:22;;;;;;;;;;;;;;;22.52;65.16;98781.75;2088840;28;19920;-51
2023/06/07 00:59:25;;;;;;;;;;;;;;;22.51;65.17;98771.16;2089340;28;19925;-49
2023/06/07 01:00:26;;;;;;;;;;;;;;;22.52;64.98;98778.25;2086945;28;19956;-51
2023/06/07 01:01:27;;;;;;;;;;;;;;;22.51;65.04;98769.31;2088485;28;19924;-49
2023/06/07 01:02:29;;;;;;;;;;;;;;;22.50;65.01;98769.53;2086781;28;20032;-48
2023/06/07 01:03:30;;;;;;;;;;;;;;;22.51;65.12;98771.16;2088450;28;20023;-54
2023/06/07 01:04:31;;;;;;;;;;;;;;;22.50;65.09;98764.94;2086497;28;19932;-52
2023/06/07 01:05:32;;;;;;;;;;;;;;;22.51;65.05;98773.88;2086260;28;19989;-51
2023/06/07 01:06:33;;;;;;;;;;;;;;;22.52;65.09;98772.84;2086356;28;20054;-51
2023/06/07 01:07:35;;;;;;;;;;;;;;;22.50;65.14;98770.34;2087598;28;19939;-54
2023/06/07 01:08:35;;;;;;;;;;;;;;;22.51;65.06;98771.16;2085658;28;19924;-53
2023/06/07 01:09:37;;;;;;;;;;;;;;;22.51;64.96;98766.59;2087910;28;20026;-51
2023/06/07 01:10:37;;;;;;;;;;;;;;;22.49;65.11;98768.69;2088689;28;19924;-53
2023/06/07 01:11:40;;;;;;;;;;;;;;;22.48;65.37;98769.75;2087780;28;20634;-50
2023/06/07 01:12:43;;;;;;;;;;;;;;;22.50;65.36;98758.72;2088819;28;20516;-51
2023/06/07 01:13:45;;;;;;;;;;;;;;;22.49;65.19;98757.06;2086973;28;20077;-52
2023/06/07 01:14:48;;;;;;;;;;;;;;;22.49;64.95;98763.28;2088955;28;19955;-51
2023/06/07 01:15:49;;;;;;;;;;;;;;;22.48;65.10;98767.06;2086296;28;20020;-53
2023/06/07 01:16:52;;;;;;;;;;;;;;;22.49;65.10;98771.41;2086691;28;19971;-54
2023/06/07 01:17:54;;;;;;;;;;;;;;;22.50;65.04;98770.34;2075265;28;19935;-51
2023/06/07 01:18:56;;;;;;;;;;;;;;;22.49;65.09;98771.41;2086208;28;19935;-53
2023/06/07 01:19:59;;;;;;;;;;;;;;;22.49;65.23;98768.69;2088970;28;20015;-53
2023/06/07 01:21:02;;;;;;;;;;;;;;;22.48;65.26;98767.06;2086335;28;19920;-52
2023/06/07 01:22:05;;;;;;;;;;;;;;;22.49;65.18;98765.19;2086854;28;20279;-50
2023/06/07 01:23:07;;;;;;;;;;;;;;;22.49;65.31;98763.28;2087130;28;19928;-52
2023/06/07 01:24:10;;;;;;;;;;;;;;;22.48;64.90;98758.94;2087214;28;20286;-51
2023/06/07 01:25:10;;;;;;;;;;;;;;;22.49;64.89;98757.88;2087463;28;19925;-52
2023/06/07 01:26:12;;;;;;;;;;;;;;;22.47;64.97;98751.88;2087177;28;20724;-52
2023/06/07 01:27:14;;;;;;;;;;;;;;;22.48;65.22;98758.09;2086621;28;20692;-50
2023/06/07 01:28:15;;;;;;;;;;;;;;;22.48;65.04;98750.84;2086753;28;19928;-54
2023/06/07 01:29:16;;;;;;;;;;;;;;;22.48;65.27;98756.25;2086727;28;19973;-49
2023/06/07 01:30:17;;;;;;;;;;;;;;;22.48;65.02;98758.94;2079906;28;19932;-55
2023/06/07 01:31:18;;;;;;;;;;;;;;;22.50;64.91;98759.53;2082177;28;19925;-55
2023/06/07 01:32:20;;;;;;;;;;;;;;;22.49;65.00;98757.88;2079913;28;20440;-51
2023/06/07 01:33:21;;;;;;;;;;;;;;;22.50;65.04;98756.81;2080649;28;20007;-54
2023/06/07 01:34:23;;;;;;;;;;;;;;;22.50;65.04;98751.41;2083674;28;19924;-54
2023/06/07 01:35:24;;;;;;;;;;;;;;;22.49;64.84;98760.59;2082397;28;19978;-54
2023/06/07 01:36:26;;;;;;;;;;;;;;;22.49;64.96;98759.78;2080740;28;19930;-55
2023/06/07 01:37:27;;;;;;;;;;;;;;;22.47;65.10;98757.28;2086784;28;20646;-55
2023/06/07 01:38:30;;;;;;;;;;;;;;;22.48;65.07;98758.09;2085206;28;19935;-50
2023/06/07 01:39:33;;;;;;;;;;;;;;;22.47;64.97;98754.56;2085945;28;19924;-55
2023/06/07 01:40:35;;;;;;;;;;;;;;;22.48;65.09;98756.25;2088416;28;19920;-53
2023/06/07 01:41:36;;;;;;;;;;;;;;;22.49;65.18;98757.06;2083254;28;19934;-54
2023/06/07 01:42:38;;;;;;;;;;;;;;;22.48;65.07;98761.66;2078025;28;20402;-54
2023/06/07 01:43:39;;;;;;;;;;;;;;;22.47;64.96;98765.38;2082003;28;19920;-51
2023/06/07 01:44:42;;;;;;;;;;;;;;;22.48;64.95;98761.66;2081504;28;19925;-49
2023/06/07 01:45:44;;;;;;;;;;;;;;;22.49;65.09;98759.78;2081826;28;19997;-54
2023/06/07 01:46:45;;;;;;;;;;;;;;;22.49;64.94;98763.28;2081910;28;19929;-51
2023/06/07 01:47:46;;;;;;;;;;;;;;;22.50;64.90;98761.41;2082089;28;19994;-53
2023/06/07 01:48:47;;;;;;;;;;;;;;;22.49;65.12;98757.06;2081392;28;19994;-54
2023/06/07 01:49:48;;;;;;;;;;;;;;;22.47;65.04;98759.97;2081772;28;19985;-54
2023/06/07 01:50:49;;;;;;;;;;;;;;;22.47;64.96;98759.97;2081733;28;19925;-51
2023/06/07 01:51:50;;;;;;;;;;;;;;;22.48;64.94;98758.09;2080606;28;19928;-52
2023/06/07 01:52:52;;;;;;;;;;;;;;;22.48;64.87;98758.94;2081616;28;20423;-53
2023/06/07 01:53:52;;;;;;;;;;;;;;;22.47;64.93;98754.56;2081587;28;19965;-55
2023/06/07 01:54:56;;;;;;;;;;;;;;;22.47;64.97;98753.75;2080027;28;19928;-52
2023/06/07 01:56:03;;;;;;;;;;;;;;;22.46;64.98;98757.53;2078883;28;20397;-54
2023/06/07 01:57:16;;;;;;;;;;;;;;;22.47;65.02;98756.47;2078194;28;20970;-51
2023/06/07 01:58:22;;;;;;;;;;;;;;;22.47;65.01;98759.97;2078615;28;20351;-54
2023/06/07 01:59:37;;;;;;;;;;;;;;;22.47;65.15;98759.97;2085418;28;19928;-55
2023/06/07 02:00:40;;;;;;;;;;;;;;;22.46;64.98;98752.13;2078929;28;19993;-53
2023/06/07 02:01:45;;;;;;;;;;;;;;;22.46;65.06;98750.22;2080898;28;19928;-53
2023/06/07 02:02:48;;;;;;;;;;;;;;;22.47;65.00;98759.97;2078960;28;20019;-53
2023/06/07 02:03:53;;;;;;;;;;;;;;;22.47;65.01;98756.47;2081348;28;19931;-53
2023/06/07 02:04:56;;;;;;;;;;;;;;;22.48;65.07;98761.66;2079737;28;19924;-53
2023/06/07 02:06:03;;;;;;;;;;;;;;;22.46;64.88;98763.75;2080748;28;19974;-51
2023/06/07 02:07:05;;;;;;;;;;;;;;;22.45;65.06;98764.78;2081155;28;19978;-53
2023/06/07 02:08:09;;;;;;;;;;;;;;;22.46;64.94;98757.53;2079004;28;19929;-54
2023/06/07 02:09:11;;;;;;;;;;;;;;;22.45;65.06;98762.06;2080468;28;20031;-52
2023/06/07 02:10:14;;;;;;;;;;;;;;;22.45;65.04;98763.97;2082726;28;19935;-49
2023/06/07 02:11:15;;;;;;;;;;;;;;;22.44;64.86;98760.44;2080914;28;19931;-55
2023/06/07 02:12:16;;;;;;;;;;;;;;;22.44;65.31;98763.13;2081007;28;19927;-52
2023/06/07 02:13:18;;;;;;;;;;;;;;;22.45;64.83;98769.38;2080089;28;19924;-54
2023/06/07 02:14:20;;;;;;;;;;;;;;;22.45;65.10;98764.78;2083234;28;20361;-50
2023/06/07 02:15:21;;;;;;;;;;;;;;;22.46;64.74;98765.63;2078770;28;19931;-52
2023/06/07 02:16:35;;;;;;;;;;;;;;;22.46;64.83;98768.34;2081444;28;19975;-51
2023/06/07 02:17:46;;;;;;;;;;;;;;;22.45;64.88;98772.06;2079392;28;20038;-54
2023/06/07 02:18:48;;;;;;;;;;;;;;;22.46;64.83;98762.94;2081232;28;19928;-51
2023/06/07 02:19:48;;;;;;;;;;;;;;;22.45;64.87;98767.47;2079931;28;20051;-52
2023/06/07 02:20:50;;;;;;;;;;;;;;;22.46;65.01;98765.63;2080049;28;19924;-48
2023/06/07 02:21:50;;;;;;;;;;;;;;;22.46;65.02;98768.34;2080602;28;19932;-49
2023/06/07 02:22:52;;;;;;;;;;;;;;;22.43;64.99;98766.91;2081378;28;19924;-48
2023/06/07 02:23:52;;;;;;;;;;;;;;;22.45;64.84;98761.25;2077187;28;19925;-53
2023/06/07 02:24:53;;;;;;;;;;;;;;;22.44;65.03;98771.25;2081247;28;19931;-50
2023/06/07 02:25:55;;;;;;;;;;;;;;;22.43;64.82;98766.91;2078149;28;20502;-54
2023/06/07 02:26:57;;;;;;;;;;;;;;;22.44;64.89;98765.03;2081911;28;19931;-50
2023/06/07 02:27:58;;;;;;;;;;;;;;;22.42;64.92;98765.22;2079934;28;19928;-53
2023/06/07 02:29:01;;;;;;;;;;;;;;;22.41;64.95;98755.50;2081348;28;19924;-49
2023/06/07 02:30:03;;;;;;;;;;;;;;;22.43;65.05;98758.81;2082560;28;19925;-55
2023/06/07 02:31:04;;;;;;;;;;;;;;;22.42;65.01;98761.72;2078546;28;19990;-50
2023/06/07 02:32:05;;;;;;;;;;;;;;;22.40;65.18;98759.25;2081252;28;20005;-48
2023/06/07 02:33:09;;;;;;;;;;;;;;;22.43;64.91;98757.97;2079841;28;20322;-53
2023/06/07 02:34:10;;;;;;;;;;;;;;;22.43;65.05;98763.38;2078832;28;19925;-55
2023/06/07 02:35:12;;;;;;;;;;;;;;;22.43;65.01;98764.22;2080716;28;20949;-54
2023/06/07 02:36:13;;;;;;;;;;;;;;;22.43;64.99;98766.91;2079165;28;20115;-50
2023/06/07 02:37:15;;;;;;;;;;;;;;;22.43;64.90;98764.22;2082641;28;19970;-48
2023/06/07 02:38:16;;;;;;;;;;;;;;;22.43;64.94;98766.91;2078778;28;20271;-53
2023/06/07 02:39:17;;;;;;;;;;;;;;;22.42;64.95;98764.41;2081851;28;19927;-52
2023/06/07 02:40:17;;;;;;;;;;;;;;;22.43;65.08;98768.78;2082168;28;19982;-48
2023/06/07 02:41:21;;;;;;;;;;;;;;;22.42;65.10;98762.53;2086324;28;19974;-54
2023/06/07 02:42:21;;;;;;;;;;;;;;;22.40;65.09;98764.66;2077676;28;20016;-48
2023/06/07 02:43:23;;;;;;;;;;;;;;;22.41;65.00;98771.69;2081583;28;19931;-52
2023/06/07 02:44:23;;;;;;;;;;;;;;;22.41;64.94;98776.28;2077597;28;20007;-54
2023/06/07 02:45:25;;;;;;;;;;;;;;;22.41;64.99;98766.28;2083741;28;19920;-50
2023/06/07 02:46:25;;;;;;;;;;;;;;;22.41;64.88;98769.00;2078009;28;19924;-49
2023/06/07 02:47:27;;;;;;;;;;;;;;;22.40;65.01;98770.06;2079920;28;20386;-49
2023/06/07 02:48:27;;;;;;;;;;;;;;;22.41;65.08;98770.88;2083611;28;20015;-49
2023/06/07 02:49:28;;;;;;;;;;;;;;;22.40;64.95;98764.66;2087873;28;19920;-52
2023/06/07 02:50:29;;;;;;;;;;;;;;;22.39;65.26;98771.09;2088408;28;20007;-51
2023/06/07 02:51:30;;;;;;;;;;;;;;;22.40;65.03;98772.75;2085085;28;19928;-53
2023/06/07 02:52:31;;;;;;;;;;;;;;;22.40;65.09;98766.50;2085755;28;20003;-52
2023/06/07 02:53:32;;;;;;;;;;;;;;;22.39;65.26;98768.38;2088400;28;19932;-51
2023/06/07 02:54:34;;;;;;;;;;;;;;;22.39;64.96;98768.38;2086503;28;19959;-53
2023/06/07 02:55:36;;;;;;;;;;;;;;;22.37;65.12;98765.13;2086388;28;19928;-53
2023/06/07 02:56:38;;;;;;;;;;;;;;;22.40;64.96;98769.22;2086328;28;20040;-51
2023/06/07 02:57:40;;;;;;;;;;;;;;;22.38;65.10;98764.03;2085246;28;19926;-54
2023/06/07 02:58:41;;;;;;;;;;;;;;;22.38;65.27;98768.63;2086214;28;19955;-50
2023/06/07 02:59:42;;;;;;;;;;;;;;;22.38;65.03;98766.75;2086223;28;19921;-53
2023/06/07 03:00:44;;;;;;;;;;;;;;;22.37;65.00;98764.25;2087695;28;19979;-48
2023/06/07 03:01:46;;;;;;;;;;;;;;;22.39;64.93;98765.69;2084711;28;19928;-53
2023/06/07 03:02:47;;;;;;;;;;;;;;;22.38;64.93;98771.34;2087444;28;19921;-53
2023/06/07 03:03:49;;;;;;;;;;;;;;;22.39;65.31;98768.38;2085289;28;19952;-51
2023/06/07 03:04:50;;;;;;;;;;;;;;;22.40;65.02;98763.81;2082760;28;19936;-54
2023/06/07 03:05:52;;;;;;;;;;;;;;;22.40;64.96;98761.09;2084832;28;19921;-51
2023/06/07 03:06:53;;;;;;;;;;;;;;;22.38;65.09;98764.03;2086212;28;20349;-52
2023/06/07 03:07:56;;;;;;;;;;;;;;;22.40;65.06;98769.22;2085556;28;19924;-48
2023/06/07 03:08:57;;;;;;;;;;;;;;;22.38;64.86;98768.63;2083340;28;19985;-52
2023/06/07 03:09:58;;;;;;;;;;;;;;;22.40;64.99;98767.38;2082815;28;20005;-52
2023/06/07 03:10:59;;;;;;;;;;;;;;;22.38;64.93;98766.75;2085134;28;19965;-50
2023/06/07 03:12:02;;;;;;;;;;;;;;;22.38;64.93;98765.94;2083408;28;19931;-54
2023/06/07 03:13:02;;;;;;;;;;;;;;;22.40;64.97;98764.66;2084141;28;19928;-52
2023/06/07 03:14:04;;;;;;;;;;;;;;;22.40;64.91;98770.06;2084532;28;19944;-49
2023/06/07 03:15:05;;;;;;;;;;;;;;;22.40;64.96;98764.66;2082518;28;19994;-54
2023/06/07 03:16:07;;;;;;;;;;;;;;;22.39;64.95;98768.38;2083990;28;20462;-52
2023/06/07 03:17:08;;;;;;;;;;;;;;;22.40;64.94;98772.75;2085384;28;20271;-50
2023/06/07 03:18:09;;;;;;;;;;;;;;;22.39;64.79;98765.69;2083307;28;19928;-50
2023/06/07 03:19:10;;;;;;;;;;;;;;;22.40;64.87;98769.22;2086190;28;20687;-54
2023/06/07 03:20:11;;;;;;;;;;;;;;;22.38;65.15;98774.84;2084990;28;20514;-50
2023/06/07 03:21:12;;;;;;;;;;;;;;;22.37;65.12;98769.66;2082664;28;19921;-48
2023/06/07 03:22:13;;;;;;;;;;;;;;;22.39;64.90;98773.78;2084406;28;19968;-48
2023/06/07 03:23:15;;;;;;;;;;;;;;;22.38;64.94;98766.75;2086912;28;20520;-50
2023/06/07 03:24:16;;;;;;;;;;;;;;;22.38;64.98;98769.44;2081712;28;19923;-51
2023/06/07 03:25:18;;;;;;;;;;;;;;;22.37;65.07;98769.66;2087835;28;20583;-53
2023/06/07 03:26:18;;;;;;;;;;;;;;;22.36;65.07;98768.84;2084344;28;19920;-52
2023/06/07 03:27:23;;;;;;;;;;;;;;;22.37;64.97;98773.22;2084852;28;19924;-49
2023/06/07 03:28:24;;;;;;;;;;;;;;;22.39;65.09;98773.78;2082605;28;20572;-53
2023/06/07 03:29:26;;;;;;;;;;;;;;;22.38;65.16;98771.34;2088106;28;19960;-53
2023/06/07 03:30:26;;;;;;;;;;;;;;;22.40;65.04;98775.47;2082479;28;19924;-53
2023/06/07 03:31:28;;;;;;;;;;;;;;;22.38;64.99;98776.75;2085890;28;19928;-51
2023/06/07 03:32:28;;;;;;;;;;;;;;;22.37;65.15;98764.25;2083291;28;19974;-51
2023/06/07 03:33:30;;;;;;;;;;;;;;;22.36;65.06;98773.44;2086514;28;19928;-49
2023/06/07 03:34:32;;;;;;;;;;;;;;;22.36;65.17;98776.13;2087123;28;20492;-50
2023/06/07 03:35:33;;;;;;;;;;;;;;;22.35;65.12;98772.59;2088462;28;20816;-53
2023/06/07 03:36:35;;;;;;;;;;;;;;;22.36;65.01;98771.53;2081476;28;20023;-51
2023/06/07 03:37:36;;;;;;;;;;;;;;;22.36;64.82;98771.53;2083305;28;20017;-53
2023/06/07 03:38:37;;;;;;;;;;;;;;;22.36;64.99;98779.66;2077618;28;19936;-54
2023/06/07 03:39:38;;;;;;;;;;;;;;;22.35;65.15;98772.59;2079843;28;20348;-54
2023/06/07 03:40:39;;;;;;;;;;;;;;;22.37;64.87;98770.50;2078828;28;19928;-50
2023/06/07 03:41:43;;;;;;;;;;;;;;;22.36;64.98;98768.03;2083183;28;20801;-53
2023/06/07 03:42:46;;;;;;;;;;;;;;;22.34;65.10;98768.22;2079224;28;19924;-53
2023/06/07 03:43:46;;;;;;;;;;;;;;;22.34;65.08;98770.13;2082969;28;19928;-54
2023/06/07 03:44:48;;;;;;;;;;;;;;;22.34;65.09;98770.94;2082387;28;19925;-54
2023/06/07 03:45:48;;;;;;;;;;;;;;;22.35;65.05;98767.19;2080366;28;19928;-50
2023/06/07 03:46:49;;;;;;;;;;;;;;;22.35;65.09;98772.59;2078336;28;19921;-53
2023/06/07 03:47:50;;;;;;;;;;;;;;;22.35;65.27;98772.59;2083206;28;19977;-53
2023/06/07 03:48:51;;;;;;;;;;;;;;;22.35;64.99;98775.31;2082594;28;20001;-53
2023/06/07 03:49:52;;;;;;;;;;;;;;;22.35;64.96;98772.59;2079996;28;20352;-52
2023/06/07 03:50:53;;;;;;;;;;;;;;;22.35;64.98;98772.59;2082234;28;19928;-54
2023/06/07 03:51:54;;;;;;;;;;;;;;;22.34;64.88;98776.34;2076458;28;20510;-52
2023/06/07 03:52:55;;;;;;;;;;;;;;;22.35;65.17;98775.31;2081499;28;19926;-53
2023/06/07 03:53:56;;;;;;;;;;;;;;;22.34;64.94;98770.94;2081622;28;19967;-53
2023/06/07 03:54:57;;;;;;;;;;;;;;;22.35;64.98;98771.78;2086228;28;19920;-49
2023/06/07 03:55:58;;;;;;;;;;;;;;;22.33;65.04;98769.28;2080817;28;20564;-53
2023/06/07 03:56:59;;;;;;;;;;;;;;;22.34;64.94;98773.63;2079165;28;19937;-53
2023/06/07 03:58:01;;;;;;;;;;;;;;;22.36;64.80;98770.72;2080000;28;21224;-53
2023/06/07 03:59:03;;;;;;;;;;;;;;;22.35;65.10;98764.50;2081787;28;20329;-53
2023/06/07 04:00:11;;;;;;;;;;;;;;;22.35;65.00;98764.50;2079815;28;20513;-53
2023/06/07 04:01:12;;;;;;;;;;;;;;;22.35;65.13;98769.91;2079349;28;19928;-51
2023/06/07 04:02:14;;;;;;;;;;;;;;;22.34;65.07;98770.13;2080811;28;19964;-48
2023/06/07 04:03:14;;;;;;;;;;;;;;;22.33;65.36;98768.47;2082511;28;19978;-54
2023/06/07 04:04:16;;;;;;;;;;;;;;;22.33;65.11;98774.69;2079139;28;19930;-53
2023/06/07 04:05:17;;;;;;;;;;;;;;;22.34;64.94;98773.63;2081622;28;19929;-53
2023/06/07 04:06:20;;;;;;;;;;;;;;;22.34;64.94;98784.44;2079678;28;19928;-52
2023/06/07 04:07:20;;;;;;;;;;;;;;;22.35;65.01;98783.41;2082466;28;19925;-50
2023/06/07 04:08:22;;;;;;;;;;;;;;;22.35;64.69;98783.41;2080696;28;19947;-52
2023/06/07 04:09:23;;;;;;;;;;;;;;;22.34;64.83;98776.34;2079351;28;19936;-51
2023/06/07 04:10:24;;;;;;;;;;;;;;;22.34;65.07;98784.44;2078076;28;20374;-49
2023/06/07 04:11:27;;;;;;;;;;;;;;;22.33;64.98;98777.41;2080607;28;19924;-54
2023/06/07 04:12:28;;;;;;;;;;;;;;;22.34;65.05;98776.34;2080043;28;19920;-52
2023/06/07 04:13:30;;;;;;;;;;;;;;;22.33;65.03;98776.59;2080982;28;20453;-51
2023/06/07 04:14:32;;;;;;;;;;;;;;;22.32;65.13;98775.75;2081184;28;20302;-53
2023/06/07 04:15:32;;;;;;;;;;;;;;;22.32;64.94;98774.94;2084312;28;20515;-54
2023/06/07 04:16:34;;;;;;;;;;;;;;;22.32;64.94;98778.47;2081242;28;20375;-53
2023/06/07 04:17:34;;;;;;;;;;;;;;;22.32;64.96;98783.88;2081594;28;20020;-52
2023/06/07 04:18:35;;;;;;;;;;;;;;;22.34;64.98;98780.94;2086535;28;19927;-49
2023/06/07 04:19:36;;;;;;;;;;;;;;;22.33;64.77;98784.69;2083261;28;20439;-50
2023/06/07 04:20:39;;;;;;;;;;;;;;;22.31;65.22;98776.78;2083329;28;19933;-52
2023/06/07 04:21:40;;;;;;;;;;;;;;;22.33;65.05;98782.00;2079906;28;19943;-52
2023/06/07 04:22:42;;;;;;;;;;;;;;;22.30;65.06;98781.38;2082342;28;20666;-53
2023/06/07 04:23:43;;;;;;;;;;;;;;;22.33;64.73;98782.81;2080935;28;19991;-53
2023/06/07 04:24:44;;;;;;;;;;;;;;;22.33;64.94;98776.59;2081555;28;19928;-53
2023/06/07 04:25:46;;;;;;;;;;;;;;;22.32;64.90;98772.25;2080690;28;19929;-54
2023/06/07 04:26:49;;;;;;;;;;;;;;;22.32;64.95;98775.75;2080505;28;19920;-53
2023/06/07 04:27:51;;;;;;;;;;;;;;;22.33;64.83;98779.28;2082348;28;20296;-53
2023/06/07 04:28:56;;;;;;;;;;;;;;;22.32;64.86;98778.47;2081718;28;19920;-53
2023/06/07 04:30:01;;;;;;;;;;;;;;;22.30;64.85;98778.69;2076861;28;20484;-53
2023/06/07 04:31:03;;;;;;;;;;;;;;;22.33;64.83;98773.88;2082406;28;19928;-54
2023/06/07 04:32:03;;;;;;;;;;;;;;;22.31;65.19;98771.38;2081024;28;20026;-53
2023/06/07 04:33:08;;;;;;;;;;;;;;;22.30;64.92;98775.16;2083047;28;20112;-54
2023/06/07 04:34:09;;;;;;;;;;;;;;;22.30;64.86;98775.97;2083352;28;19924;-52
2023/06/07 04:35:14;;;;;;;;;;;;;;;22.29;65.04;98768.94;2081924;28;19924;-53
2023/06/07 04:36:18;;;;;;;;;;;;;;;22.30;64.85;98775.16;2082911;28;19928;-52
2023/06/07 04:37:20;;;;;;;;;;;;;;;22.30;65.06;98775.16;2079823;28;20752;-53
2023/06/07 04:38:20;;;;;;;;;;;;;;;22.30;65.13;98769.75;2084164;28;20467;-52
2023/06/07 04:39:23;;;;;;;;;;;;;;;22.29;64.89;98773.50;2086448;28;19932;-53
2023/06/07 04:40:23;;;;;;;;;;;;;;;22.28;65.08;98763.72;2082837;28;21878;-54
2023/06/07 04:41:30;;;;;;;;;;;;;;;22.27;65.12;98773.72;2084145;28;19928;-51
2023/06/07 04:42:31;;;;;;;;;;;;;;;22.30;65.00;98769.75;2087652;28;20633;-54
2023/06/07 04:43:35;;;;;;;;;;;;;;;22.29;64.97;98768.94;2085040;28;20005;-53
2023/06/07 04:44:37;;;;;;;;;;;;;;;22.31;64.85;98768.69;2081065;28;19977;-53
2023/06/07 04:45:41;;;;;;;;;;;;;;;22.29;65.16;98768.09;2081391;28;19929;-54
2023/06/07 04:46:43;;;;;;;;;;;;;;;22.29;64.81;98768.09;2082515;28;19925;-52
2023/06/07 04:47:45;;;;;;;;;;;;;;;22.29;65.01;98768.09;2084249;28;21681;-49
2023/06/07 04:48:46;;;;;;;;;;;;;;;22.28;65.13;98769.97;2084842;28;20019;-54
2023/06/07 04:49:51;;;;;;;;;;;;;;;22.29;64.89;98768.09;2088853;28;20330;-53
2023/06/07 04:50:54;;;;;;;;;;;;;;;22.28;65.34;98761.03;2089974;28;19944;-49
2023/06/07 04:51:55;;;;;;;;;;;;;;;22.27;65.18;98762.09;2088901;28;19925;-52
2023/06/07 04:53:00;;;;;;;;;;;;;;;22.27;65.21;98770.19;2087564;28;20378;-48
2023/06/07 04:54:04;;;;;;;;;;;;;;;22.25;65.03;98762.31;2088380;28;19928;-52
2023/06/07 04:55:05;;;;;;;;;;;;;;;22.26;65.24;98763.16;2089332;28;19932;-51
2023/06/07 04:56:06;;;;;;;;;;;;;;;22.28;65.05;98766.44;2086758;28;19932;-51
2023/06/07 04:57:08;;;;;;;;;;;;;;;22.26;65.24;98774.78;2088619;28;19931;-49
2023/06/07 04:58:10;;;;;;;;;;;;;;;22.26;64.98;98766.69;2081185;28;20452;-53
2023/06/07 04:59:10;;;;;;;;;;;;;;;22.25;65.11;98767.72;2085159;28;19932;-52
2023/06/07 05:00:16;;;;;;;;;;;;;;;22.25;64.90;98756.09;2086980;28;20035;-51
2023/06/07 05:01:17;;;;;;;;;;;;;;;22.26;65.07;98768.56;2086276;28;19959;-52
2023/06/07 05:02:18;;;;;;;;;;;;;;;22.27;65.09;98756.69;2085114;28;19936;-52
2023/06/07 05:03:24;;;;;;;;;;;;;;;22.27;65.18;98756.69;2089442;28;19921;-51
2023/06/07 05:04:25;;;;;;;;;;;;;;;22.27;64.89;98759.38;2087642;28;19928;-51
2023/06/07 05:05:27;;;;;;;;;;;;;;;22.26;64.98;98761.28;2086985;28;20010;-51
2023/06/07 05:06:28;;;;;;;;;;;;;;;22.24;65.18;98766.06;2084334;28;20022;-54
2023/06/07 05:07:32;;;;;;;;;;;;;;;22.25;65.29;98761.47;2089667;28;20019;-50
2023/06/07 05:08:32;;;;;;;;;;;;;;;22.25;65.19;98767.72;2086578;28;19921;-52
2023/06/07 05:09:34;;;;;;;;;;;;;;;22.27;65.04;98764.78;2086677;28;19925;-52
2023/06/07 05:10:34;;;;;;;;;;;;;;;22.27;64.92;98768.31;2087782;28;19955;-48
2023/06/07 05:11:36;;;;;;;;;;;;;;;22.27;64.85;98764.78;2089112;28;20006;-53
2023/06/07 05:12:36;;;;;;;;;;;;;;;22.25;65.10;98762.31;2088375;28;19967;-49
2023/06/07 05:13:38;;;;;;;;;;;;;;;22.27;64.99;98764.78;2086856;28;19980;-52
2023/06/07 05:14:38;;;;;;;;;;;;;;;22.27;64.84;98770.19;2085275;28;20038;-51
2023/06/07 05:15:41;;;;;;;;;;;;;;;22.26;64.91;98768.56;2085485;28;19928;-52
2023/06/07 05:16:43;;;;;;;;;;;;;;;22.26;64.95;98763.16;2087815;28;20381;-51
2023/06/07 05:17:45;;;;;;;;;;;;;;;22.26;64.84;98771.25;2085701;28;19932;-53
2023/06/07 05:18:46;;;;;;;;;;;;;;;22.25;65.02;98769.59;2088417;28;19932;-53
2023/06/07 05:19:48;;;;;;;;;;;;;;;22.26;65.00;98773.97;2086686;28;19927;-52
2023/06/07 05:20:49;;;;;;;;;;;;;;;22.25;64.90;98767.72;2084627;28;19928;-54
2023/06/07 05:21:50;;;;;;;;;;;;;;;22.25;65.16;98767.72;2084946;28;19928;-54